Alpine, Idaho
Current Conditions -  °F | °C
As of 11:06 AM on Monday 26 Jan 2015 (Local Time) from KMYL Reporting Station
Scattered Clouds Scattered Clouds  
Wind Chill: 30°   Ceiling: Unl
Heat Index: 30°   Visibility: 10mi
Dew Point: 25°   Wind: 3mph
Humidity: 82%   Direction: 170°S
Pressure: 30.25"   Gusts: NA
Location:  44.6782°N, 116.766°W
Report Text: KMYL 261806Z AUTO 17003KT 10SM SCT001 M01/M04 A3025 RMK AO2 T10111039
Loading
Personal Weather Stations






























Interactive Weather Map New forecast layout! Learn more

10-Day Weather Forecast

Advertisements
Track Severe Weather on mobile